sensor_id;sensor_type;location;lat;lon;timestamp;P1;durP1;ratioP1;P2;durP2;ratioP2
2544;SDS011;36212;48.838;9.142;2023-02-11T00:00:16;27.25;;;18.35;;
2544;SDS011;36212;48.838;9.142;2023-02-11T00:02:48;25.55;;;16.63;;
2544;SDS011;36212;48.838;9.142;2023-02-11T00:05:21;28.38;;;20.02;;
2544;SDS011;36212;48.838;9.142;2023-02-11T00:07:53;26.65;;;16.80;;
2544;SDS011;36212;48.838;9.142;2023-02-11T00:10:25;30.15;;;19.23;;
2544;SDS011;36212;48.838;9.142;2023-02-11T00:12:57;36.15;;;20.17;;
2544;SDS011;36212;48.838;9.142;2023-02-11T00:15:30;33.53;;;21.10;;
2544;SDS011;36212;48.838;9.142;2023-02-11T00:18:02;28.85;;;19.35;;
2544;SDS011;36212;48.838;9.142;2023-02-11T00:20:37;28.70;;;20.13;;
2544;SDS011;36212;48.838;9.142;2023-02-11T00:23:09;31.10;;;21.35;;
2544;SDS011;36212;48.838;9.142;2023-02-11T00:25:42;29.30;;;19.80;;
2544;SDS011;36212;48.838;9.142;2023-02-11T00:28:15;45.78;;;21.67;;
2544;SDS011;36212;48.838;9.142;2023-02-11T00:30:55;29.02;;;17.98;;
2544;SDS011;36212;48.838;9.142;2023-02-11T00:33:28;27.85;;;18.88;;
2544;SDS011;36212;48.838;9.142;2023-02-11T00:36:06;30.00;;;20.52;;
2544;SDS011;36212;48.838;9.142;2023-02-11T00:38:53;27.25;;;20.08;;
2544;SDS011;36212;48.838;9.142;2023-02-11T00:41:26;30.75;;;20.98;;
2544;SDS011;36212;48.838;9.142;2023-02-11T00:43:59;28.27;;;19.17;;
2544;SDS011;36212;48.838;9.142;2023-02-11T00:46:33;32.60;;;19.98;;
2544;SDS011;36212;48.838;9.142;2023-02-11T00:49:06;31.80;;;20.30;;
2544;SDS011;36212;48.838;9.142;2023-02-11T00:51:38;32.03;;;18.75;;
2544;SDS011;36212;48.838;9.142;2023-02-11T00:54:11;24.83;;;18.13;;
2544;SDS011;36212;48.838;9.142;2023-02-11T00:56:43;33.22;;;20.13;;
2544;SDS011;36212;48.838;9.142;2023-02-11T00:59:23;35.92;;;21.45;;
2544;SDS011;36212;48.838;9.142;2023-02-11T01:01:56;26.67;;;17.63;;
2544;SDS011;36212;48.838;9.142;2023-02-11T01:04:28;35.30;;;21.20;;
2544;SDS011;36212;48.838;9.142;2023-02-11T01:07:00;35.13;;;20.27;;
2544;SDS011;36212;48.838;9.142;2023-02-11T01:09:32;33.72;;;22.73;;
2544;SDS011;36212;48.838;9.142;2023-02-11T01:12:07;28.45;;;19.23;;
2544;SDS011;36212;48.838;9.142;2023-02-11T01:14:39;32.78;;;20.20;;
2544;SDS011;36212;48.838;9.142;2023-02-11T01:17:11;29.80;;;19.30;;
2544;SDS011;36212;48.838;9.142;2023-02-11T01:19:44;35.63;;;20.83;;
2544;SDS011;36212;48.838;9.142;2023-02-11T01:22:34;28.00;;;18.25;;
2544;SDS011;36212;48.838;9.142;2023-02-11T01:25:10;30.42;;;19.55;;
2544;SDS011;36212;48.838;9.142;2023-02-11T01:27:42;28.67;;;20.15;;
2544;SDS011;36212;48.838;9.142;2023-02-11T01:30:15;36.83;;;23.13;;
2544;SDS011;36212;48.838;9.142;2023-02-11T01:32:47;39.53;;;22.10;;
2544;SDS011;36212;48.838;9.142;2023-02-11T01:35:19;27.13;;;19.33;;
2544;SDS011;36212;48.838;9.142;2023-02-11T01:37:51;31.00;;;20.45;;
2544;SDS011;36212;48.838;9.142;2023-02-11T01:40:24;31.90;;;19.55;;
2544;SDS011;36212;48.838;9.142;2023-02-11T01:42:56;30.65;;;20.98;;
2544;SDS011;36212;48.838;9.142;2023-02-11T01:48:38;25.15;;;17.73;;
2544;SDS011;36212;48.838;9.142;2023-02-11T01:51:25;35.22;;;20.65;;
2544;SDS011;36212;48.838;9.142;2023-02-11T01:54:21;25.92;;;17.65;;
2544;SDS011;36212;48.838;9.142;2023-02-11T01:57:36;27.55;;;18.10;;
2544;SDS011;36212;48.838;9.142;2023-02-11T02:05:46;28.95;;;17.98;;
2544;SDS011;36212;48.838;9.142;2023-02-11T02:08:39;27.95;;;18.58;;
2544;SDS011;36212;48.838;9.142;2023-02-11T02:11:24;24.33;;;17.98;;
2544;SDS011;36212;48.838;9.142;2023-02-11T02:13:57;37.33;;;20.05;;
2544;SDS011;36212;48.838;9.142;2023-02-11T02:16:31;30.40;;;19.33;;
2544;SDS011;36212;48.838;9.142;2023-02-11T02:41:56;28.98;;;17.95;;
2544;SDS011;36212;48.838;9.142;2023-02-11T02:44:29;27.00;;;18.55;;
2544;SDS011;36212;48.838;9.142;2023-02-11T02:47:02;31.75;;;20.30;;
2544;SDS011;36212;48.838;9.142;2023-02-11T02:49:34;35.00;;;21.85;;
2544;SDS011;36212;48.838;9.142;2023-02-11T03:07:19;23.63;;;17.30;;
2544;SDS011;36212;48.838;9.142;2023-02-11T03:12:57;27.60;;;19.33;;
2544;SDS011;36212;48.838;9.142;2023-02-11T03:15:31;28.75;;;21.42;;
2544;SDS011;36212;48.838;9.142;2023-02-11T03:18:13;31.98;;;22.45;;
2544;SDS011;36212;48.838;9.142;2023-02-11T03:20:52;27.35;;;21.05;;
2544;SDS011;36212;48.838;9.142;2023-02-11T03:23:27;33.17;;;22.55;;
2544;SDS011;36212;48.838;9.142;2023-02-11T03:32:37;26.42;;;18.95;;
2544;SDS011;36212;48.838;9.142;2023-02-11T03:35:22;30.55;;;18.92;;
2544;SDS011;36212;48.838;9.142;2023-02-11T03:38:10;32.13;;;22.45;;
2544;SDS011;36212;48.838;9.142;2023-02-11T03:40:50;30.63;;;21.08;;
2544;SDS011;36212;48.838;9.142;2023-02-11T03:43:44;33.83;;;20.83;;
2544;SDS011;36212;48.838;9.142;2023-02-11T03:46:26;35.08;;;20.92;;
2544;SDS011;36212;48.838;9.142;2023-02-11T03:49:08;32.65;;;19.85;;
2544;SDS011;36212;48.838;9.142;2023-02-11T03:51:47;26.73;;;20.20;;
2544;SDS011;36212;48.838;9.142;2023-02-11T03:54:26;28.55;;;20.60;;
2544;SDS011;36212;48.838;9.142;2023-02-11T03:57:01;31.27;;;19.42;;
2544;SDS011;36212;48.838;9.142;2023-02-11T03:59:48;30.73;;;19.30;;
2544;SDS011;36212;48.838;9.142;2023-02-11T04:02:26;26.77;;;19.20;;
2544;SDS011;36212;48.838;9.142;2023-02-11T04:05:07;27.60;;;18.77;;
2544;SDS011;36212;48.838;9.142;2023-02-11T04:07:43;31.75;;;20.60;;
2544;SDS011;36212;48.838;9.142;2023-02-11T04:10:15;26.77;;;17.23;;
2544;SDS011;36212;48.838;9.142;2023-02-11T04:12:48;29.23;;;18.40;;
2544;SDS011;36212;48.838;9.142;2023-02-11T04:15:20;28.85;;;19.10;;
2544;SDS011;36212;48.838;9.142;2023-02-11T04:17:53;27.80;;;18.92;;
2544;SDS011;36212;48.838;9.142;2023-02-11T04:20:25;29.45;;;19.15;;
2544;SDS011;36212;48.838;9.142;2023-02-11T04:22:57;30.48;;;19.95;;
2544;SDS011;36212;48.838;9.142;2023-02-11T04:25:29;31.63;;;18.85;;
2544;SDS011;36212;48.838;9.142;2023-02-11T04:28:01;29.70;;;18.88;;
2544;SDS011;36212;48.838;9.142;2023-02-11T04:30:33;26.27;;;18.80;;
2544;SDS011;36212;48.838;9.142;2023-02-11T04:33:05;32.22;;;18.00;;
2544;SDS011;36212;48.838;9.142;2023-02-11T04:35:37;25.45;;;17.73;;
2544;SDS011;36212;48.838;9.142;2023-02-11T04:38:09;31.30;;;18.88;;
2544;SDS011;36212;48.838;9.142;2023-02-11T04:40:41;30.08;;;18.60;;
2544;SDS011;36212;48.838;9.142;2023-02-11T04:43:13;26.05;;;18.95;;
2544;SDS011;36212;48.838;9.142;2023-02-11T04:45:46;27.38;;;18.65;;
2544;SDS011;36212;48.838;9.142;2023-02-11T04:48:19;30.88;;;20.30;;
2544;SDS011;36212;48.838;9.142;2023-02-11T04:50:51;28.85;;;19.20;;
2544;SDS011;36212;48.838;9.142;2023-02-11T04:53:23;33.20;;;19.30;;
2544;SDS011;36212;48.838;9.142;2023-02-11T04:55:55;24.13;;;19.00;;
2544;SDS011;36212;48.838;9.142;2023-02-11T04:58:27;30.92;;;20.35;;
2544;SDS011;36212;48.838;9.142;2023-02-11T05:01:09;30.23;;;20.38;;
2544;SDS011;36212;48.838;9.142;2023-02-11T05:03:44;36.05;;;21.08;;
2544;SDS011;36212;48.838;9.142;2023-02-11T05:06:16;35.42;;;23.02;;
2544;SDS011;36212;48.838;9.142;2023-02-11T05:08:49;30.95;;;21.80;;
2544;SDS011;36212;48.838;9.142;2023-02-11T05:11:22;37.35;;;24.50;;
2544;SDS011;36212;48.838;9.142;2023-02-11T05:13:55;34.40;;;21.33;;
2544;SDS011;36212;48.838;9.142;2023-02-11T05:16:27;28.85;;;23.30;;
2544;SDS011;36212;48.838;9.142;2023-02-11T05:19:00;41.58;;;23.48;;
2544;SDS011;36212;48.838;9.142;2023-02-11T05:21:32;33.33;;;22.15;;
2544;SDS011;36212;48.838;9.142;2023-02-11T05:24:04;29.38;;;21.10;;
2544;SDS011;36212;48.838;9.142;2023-02-11T05:26:36;33.90;;;23.20;;
2544;SDS011;36212;48.838;9.142;2023-02-11T05:29:08;31.20;;;22.10;;
2544;SDS011;36212;48.838;9.142;2023-02-11T05:31:40;31.70;;;22.95;;
2544;SDS011;36212;48.838;9.142;2023-02-11T05:34:13;37.05;;;24.17;;
2544;SDS011;36212;48.838;9.142;2023-02-11T05:36:45;34.65;;;23.05;;
2544;SDS011;36212;48.838;9.142;2023-02-11T05:39:17;38.00;;;23.35;;
2544;SDS011;36212;48.838;9.142;2023-02-11T05:41:49;33.75;;;23.80;;
2544;SDS011;36212;48.838;9.142;2023-02-11T05:44:21;38.72;;;24.52;;
2544;SDS011;36212;48.838;9.142;2023-02-11T05:46:53;33.08;;;22.27;;
2544;SDS011;36212;48.838;9.142;2023-02-11T05:49:25;31.88;;;23.80;;
2544;SDS011;36212;48.838;9.142;2023-02-11T05:51:57;32.97;;;21.67;;
2544;SDS011;36212;48.838;9.142;2023-02-11T05:54:29;30.55;;;21.55;;
2544;SDS011;36212;48.838;9.142;2023-02-11T05:57:01;32.42;;;22.13;;
2544;SDS011;36212;48.838;9.142;2023-02-11T05:59:34;29.95;;;20.77;;
2544;SDS011;36212;48.838;9.142;2023-02-11T06:02:06;30.00;;;22.25;;
2544;SDS011;36212;48.838;9.142;2023-02-11T06:04:39;31.73;;;23.95;;
2544;SDS011;36212;48.838;9.142;2023-02-11T06:07:13;29.92;;;21.17;;
2544;SDS011;36212;48.838;9.142;2023-02-11T06:09:46;31.23;;;21.17;;
2544;SDS011;36212;48.838;9.142;2023-02-11T06:12:18;28.20;;;20.30;;
2544;SDS011;36212;48.838;9.142;2023-02-11T06:14:52;31.05;;;22.50;;
2544;SDS011;36212;48.838;9.142;2023-02-11T06:17:25;33.17;;;22.25;;
2544;SDS011;36212;48.838;9.142;2023-02-11T06:20:01;30.80;;;21.85;;
2544;SDS011;36212;48.838;9.142;2023-02-11T06:22:36;33.33;;;21.02;;
2544;SDS011;36212;48.838;9.142;2023-02-11T06:25:09;29.60;;;21.52;;
2544;SDS011;36212;48.838;9.142;2023-02-11T06:27:42;33.10;;;21.83;;
2544;SDS011;36212;48.838;9.142;2023-02-11T06:30:14;29.85;;;23.10;;
2544;SDS011;36212;48.838;9.142;2023-02-11T06:32:46;26.90;;;20.55;;
2544;SDS011;36212;48.838;9.142;2023-02-11T06:35:18;34.22;;;20.25;;
2544;SDS011;36212;48.838;9.142;2023-02-11T06:37:50;30.85;;;22.00;;
2544;SDS011;36212;48.838;9.142;2023-02-11T06:40:24;34.50;;;23.38;;
2544;SDS011;36212;48.838;9.142;2023-02-11T06:42:56;28.23;;;20.35;;
2544;SDS011;36212;48.838;9.142;2023-02-11T06:45:28;35.63;;;22.52;;
2544;SDS011;36212;48.838;9.142;2023-02-11T06:48:00;29.35;;;20.98;;
2544;SDS011;36212;48.838;9.142;2023-02-11T06:50:32;31.13;;;20.75;;
2544;SDS011;36212;48.838;9.142;2023-02-11T06:53:04;29.23;;;22.00;;
2544;SDS011;36212;48.838;9.142;2023-02-11T06:55:36;32.28;;;23.05;;
2544;SDS011;36212;48.838;9.142;2023-02-11T06:58:09;29.58;;;21.48;;
2544;SDS011;36212;48.838;9.142;2023-02-11T07:00:41;32.83;;;21.83;;
2544;SDS011;36212;48.838;9.142;2023-02-11T07:03:14;33.58;;;22.65;;
2544;SDS011;36212;48.838;9.142;2023-02-11T07:05:46;28.25;;;22.00;;
2544;SDS011;36212;48.838;9.142;2023-02-11T07:08:18;32.88;;;22.88;;
2544;SDS011;36212;48.838;9.142;2023-02-11T07:10:50;33.50;;;22.75;;
2544;SDS011;36212;48.838;9.142;2023-02-11T07:13:22;31.10;;;21.33;;
2544;SDS011;36212;48.838;9.142;2023-02-11T07:16:09;32.63;;;24.20;;
2544;SDS011;36212;48.838;9.142;2023-02-11T07:18:44;26.88;;;21.58;;
2544;SDS011;36212;48.838;9.142;2023-02-11T07:21:19;32.38;;;22.55;;
2544;SDS011;36212;48.838;9.142;2023-02-11T07:23:53;30.50;;;22.65;;
2544;SDS011;36212;48.838;9.142;2023-02-11T07:26:25;27.85;;;21.48;;
2544;SDS011;36212;48.838;9.142;2023-02-11T07:28:59;33.00;;;24.48;;
2544;SDS011;36212;48.838;9.142;2023-02-11T07:31:31;31.88;;;22.55;;
2544;SDS011;36212;48.838;9.142;2023-02-11T07:34:04;30.52;;;22.60;;
2544;SDS011;36212;48.838;9.142;2023-02-11T07:36:36;28.75;;;22.58;;
2544;SDS011;36212;48.838;9.142;2023-02-11T07:39:08;31.02;;;24.67;;
2544;SDS011;36212;48.838;9.142;2023-02-11T07:41:40;33.03;;;23.73;;
2544;SDS011;36212;48.838;9.142;2023-02-11T07:44:18;32.58;;;24.40;;
2544;SDS011;36212;48.838;9.142;2023-02-11T07:46:50;45.08;;;29.65;;
2544;SDS011;36212;48.838;9.142;2023-02-11T07:49:22;49.70;;;34.45;;
2544;SDS011;36212;48.838;9.142;2023-02-11T07:51:54;39.00;;;26.73;;
2544;SDS011;36212;48.838;9.142;2023-02-11T07:54:26;34.45;;;23.63;;
2544;SDS011;36212;48.838;9.142;2023-02-11T07:56:58;33.50;;;21.63;;
2544;SDS011;36212;48.838;9.142;2023-02-11T07:59:30;26.48;;;21.50;;
2544;SDS011;36212;48.838;9.142;2023-02-11T08:02:02;31.33;;;21.42;;
2544;SDS011;36212;48.838;9.142;2023-02-11T08:04:35;31.35;;;23.52;;
2544;SDS011;36212;48.838;9.142;2023-02-11T08:07:07;30.83;;;22.55;;
2544;SDS011;36212;48.838;9.142;2023-02-11T08:09:39;30.85;;;21.23;;
2544;SDS011;36212;48.838;9.142;2023-02-11T08:12:11;29.92;;;22.70;;
2544;SDS011;36212;48.838;9.142;2023-02-11T08:14:43;27.55;;;18.85;;
2544;SDS011;36212;48.838;9.142;2023-02-11T08:17:15;21.23;;;16.15;;
2544;SDS011;36212;48.838;9.142;2023-02-11T08:19:48;17.63;;;14.60;;
2544;SDS011;36212;48.838;9.142;2023-02-11T08:22:20;20.42;;;14.48;;
2544;SDS011;36212;48.838;9.142;2023-02-11T08:25:03;14.93;;;13.05;;
2544;SDS011;36212;48.838;9.142;2023-02-11T08:27:36;22.05;;;15.77;;
2544;SDS011;36212;48.838;9.142;2023-02-11T08:30:08;23.70;;;17.00;;
2544;SDS011;36212;48.838;9.142;2023-02-11T08:32:42;24.30;;;16.20;;
2544;SDS011;36212;48.838;9.142;2023-02-11T08:35:15;24.70;;;18.70;;
2544;SDS011;36212;48.838;9.142;2023-02-11T08:37:47;31.17;;;18.95;;
2544;SDS011;36212;48.838;9.142;2023-02-11T08:40:20;27.02;;;19.55;;
2544;SDS011;36212;48.838;9.142;2023-02-11T08:42:52;28.48;;;19.35;;
2544;SDS011;36212;48.838;9.142;2023-02-11T08:45:24;27.08;;;19.77;;
2544;SDS011;36212;48.838;9.142;2023-02-11T08:47:56;23.02;;;19.45;;
2544;SDS011;36212;48.838;9.142;2023-02-11T08:50:28;21.85;;;18.08;;
2544;SDS011;36212;48.838;9.142;2023-02-11T08:53:01;22.63;;;18.67;;
2544;SDS011;36212;48.838;9.142;2023-02-11T08:55:33;27.25;;;19.63;;
2544;SDS011;36212;48.838;9.142;2023-02-11T08:58:05;22.63;;;17.92;;
2544;SDS011;36212;48.838;9.142;2023-02-11T09:00:38;27.38;;;20.55;;
2544;SDS011;36212;48.838;9.142;2023-02-11T09:03:13;23.75;;;20.45;;
2544;SDS011;36212;48.838;9.142;2023-02-11T09:05:47;23.55;;;19.42;;
2544;SDS011;36212;48.838;9.142;2023-02-11T09:08:22;27.40;;;21.10;;
2544;SDS011;36212;48.838;9.142;2023-02-11T09:10:55;29.73;;;21.48;;
2544;SDS011;36212;48.838;9.142;2023-02-11T09:13:28;24.50;;;18.70;;
2544;SDS011;36212;48.838;9.142;2023-02-11T09:16:02;24.27;;;18.40;;
2544;SDS011;36212;48.838;9.142;2023-02-11T09:18:36;21.33;;;17.58;;
2544;SDS011;36212;48.838;9.142;2023-02-11T09:21:08;26.35;;;20.58;;
2544;SDS011;36212;48.838;9.142;2023-02-11T09:23:40;26.67;;;20.25;;
2544;SDS011;36212;48.838;9.142;2023-02-11T09:26:18;26.95;;;19.63;;
2544;SDS011;36212;48.838;9.142;2023-02-11T09:28:54;28.48;;;20.13;;
2544;SDS011;36212;48.838;9.142;2023-02-11T09:31:28;25.80;;;20.40;;
2544;SDS011;36212;48.838;9.142;2023-02-11T09:34:03;24.38;;;19.17;;
2544;SDS011;36212;48.838;9.142;2023-02-11T09:36:38;25.98;;;19.80;;
2544;SDS011;36212;48.838;9.142;2023-02-11T09:39:12;25.90;;;19.58;;
2544;SDS011;36212;48.838;9.142;2023-02-11T09:45:24;29.98;;;21.15;;
2544;SDS011;36212;48.838;9.142;2023-02-11T09:48:00;28.63;;;21.00;;
2544;SDS011;36212;48.838;9.142;2023-02-11T09:50:49;27.48;;;20.42;;
2544;SDS011;36212;48.838;9.142;2023-02-11T09:53:34;20.77;;;17.17;;
2544;SDS011;36212;48.838;9.142;2023-02-11T09:56:13;22.00;;;17.88;;
2544;SDS011;36212;48.838;9.142;2023-02-11T09:58:47;29.27;;;22.33;;
2544;SDS011;36212;48.838;9.142;2023-02-11T10:04:35;13.27;;;10.32;;
2544;SDS011;36212;48.838;9.142;2023-02-11T10:13:39;8.75;;;7.95;;
2544;SDS011;36212;48.838;9.142;2023-02-11T10:23:38;9.43;;;8.00;;
2544;SDS011;36212;48.838;9.142;2023-02-11T10:26:17;13.63;;;9.38;;
2544;SDS011;36212;48.838;9.142;2023-02-11T10:28:51;7.13;;;6.43;;
2544;SDS011;36212;48.838;9.142;2023-02-11T10:31:33;7.15;;;6.38;;
2544;SDS011;36212;48.838;9.142;2023-02-11T10:34:12;9.20;;;8.40;;
2544;SDS011;36212;48.838;9.142;2023-02-11T10:36:45;5.70;;;5.18;;
2544;SDS011;36212;48.838;9.142;2023-02-11T10:39:20;8.02;;;6.50;;
2544;SDS011;36212;48.838;9.142;2023-02-11T10:42:08;7.68;;;6.35;;
2544;SDS011;36212;48.838;9.142;2023-02-11T10:44:56;10.43;;;9.32;;
2544;SDS011;36212;48.838;9.142;2023-02-11T10:47:35;9.13;;;6.25;;
2544;SDS011;36212;48.838;9.142;2023-02-11T10:50:23;7.07;;;6.38;;
2544;SDS011;36212;48.838;9.142;2023-02-11T10:53:19;7.75;;;7.10;;
2544;SDS011;36212;48.838;9.142;2023-02-11T10:55:53;8.75;;;6.75;;
2544;SDS011;36212;48.838;9.142;2023-02-11T10:58:29;7.32;;;6.53;;
2544;SDS011;36212;48.838;9.142;2023-02-11T11:01:20;6.95;;;6.32;;
2544;SDS011;36212;48.838;9.142;2023-02-11T11:07:19;7.88;;;6.75;;
2544;SDS011;36212;48.838;9.142;2023-02-11T11:10:10;6.85;;;6.25;;
2544;SDS011;36212;48.838;9.142;2023-02-11T11:18:47;8.85;;;7.70;;
2544;SDS011;36212;48.838;9.142;2023-02-11T11:21:42;7.07;;;6.38;;
2544;SDS011;36212;48.838;9.142;2023-02-11T11:24:30;9.70;;;7.60;;
2544;SDS011;36212;48.838;9.142;2023-02-11T11:27:20;7.97;;;7.18;;
2544;SDS011;36212;48.838;9.142;2023-02-11T11:29:55;8.38;;;7.43;;
2544;SDS011;36212;48.838;9.142;2023-02-11T11:32:30;9.32;;;7.70;;
2544;SDS011;36212;48.838;9.142;2023-02-11T11:35:07;9.95;;;8.95;;
2544;SDS011;36212;48.838;9.142;2023-02-11T11:38:00;7.63;;;6.90;;
2544;SDS011;36212;48.838;9.142;2023-02-11T11:40:35;8.63;;;7.75;;
2544;SDS011;36212;48.838;9.142;2023-02-11T11:45:56;8.73;;;7.90;;
2544;SDS011;36212;48.838;9.142;2023-02-11T11:48:36;8.27;;;7.53;;
2544;SDS011;36212;48.838;9.142;2023-02-11T11:51:15;8.95;;;8.18;;
2544;SDS011;36212;48.838;9.142;2023-02-11T11:54:03;10.20;;;8.00;;
2544;SDS011;36212;48.838;9.142;2023-02-11T11:57:30;8.98;;;8.05;;
2544;SDS011;36212;48.838;9.142;2023-02-11T11:59:48;8.27;;;7.43;;
2544;SDS011;36212;48.838;9.142;2023-02-11T12:02:38;7.95;;;7.15;;
2544;SDS011;36212;48.838;9.142;2023-02-11T12:21:33;8.95;;;8.02;;
2544;SDS011;36212;48.838;9.142;2023-02-11T12:28:06;7.50;;;6.82;;
2544;SDS011;36212;48.838;9.142;2023-02-11T13:03:10;15.93;;;12.65;;
2544;SDS011;36212;48.838;9.142;2023-02-11T13:05:56;14.88;;;11.80;;
2544;SDS011;36212;48.838;9.142;2023-02-11T13:08:37;16.80;;;13.10;;
2544;SDS011;36212;48.838;9.142;2023-02-11T13:11:48;13.95;;;12.45;;
2544;SDS011;36212;48.838;9.142;2023-02-11T13:14:31;16.80;;;12.35;;
2544;SDS011;36212;48.838;9.142;2023-02-11T13:17:13;17.70;;;12.88;;
2544;SDS011;36212;48.838;9.142;2023-02-11T13:23:10;15.10;;;13.50;;
2544;SDS011;36212;48.838;9.142;2023-02-11T13:29:13;15.73;;;13.75;;
2544;SDS011;36212;48.838;9.142;2023-02-11T13:32:05;16.88;;;14.45;;
2544;SDS011;36212;48.838;9.142;2023-02-11T13:37:33;17.05;;;14.40;;
2544;SDS011;36212;48.838;9.142;2023-02-11T13:40:25;15.25;;;13.43;;
2544;SDS011;36212;48.838;9.142;2023-02-11T13:43:05;16.70;;;14.80;;
2544;SDS011;36212;48.838;9.142;2023-02-11T13:46:00;16.73;;;14.40;;
2544;SDS011;36212;48.838;9.142;2023-02-11T13:48:45;15.15;;;13.55;;
2544;SDS011;36212;48.838;9.142;2023-02-11T13:51:36;17.50;;;13.60;;
2544;SDS011;36212;48.838;9.142;2023-02-11T13:54:18;15.23;;;13.60;;
2544;SDS011;36212;48.838;9.142;2023-02-11T14:03:27;15.35;;;13.05;;
2544;SDS011;36212;48.838;9.142;2023-02-11T14:06:40;15.05;;;13.50;;
2544;SDS011;36212;48.838;9.142;2023-02-11T14:16:13;13.45;;;11.45;;
2544;SDS011;36212;48.838;9.142;2023-02-11T14:19:31;13.98;;;12.60;;
2544;SDS011;36212;48.838;9.142;2023-02-11T14:25:21;13.98;;;12.32;;
2544;SDS011;36212;48.838;9.142;2023-02-11T14:30:52;13.95;;;11.00;;
2544;SDS011;36212;48.838;9.142;2023-02-11T14:42:29;15.68;;;13.77;;
2544;SDS011;36212;48.838;9.142;2023-02-11T14:45:04;17.98;;;15.02;;
2544;SDS011;36212;48.838;9.142;2023-02-11T14:47:54;16.08;;;13.95;;
2544;SDS011;36212;48.838;9.142;2023-02-11T14:53:54;16.10;;;13.68;;
2544;SDS011;36212;48.838;9.142;2023-02-11T14:56:39;15.35;;;13.73;;
2544;SDS011;36212;48.838;9.142;2023-02-11T14:59:18;16.02;;;13.77;;
2544;SDS011;36212;48.838;9.142;2023-02-11T15:01:52;15.75;;;13.65;;
2544;SDS011;36212;48.838;9.142;2023-02-11T15:04:29;17.67;;;14.05;;
2544;SDS011;36212;48.838;9.142;2023-02-11T15:07:06;15.45;;;13.85;;
2544;SDS011;36212;48.838;9.142;2023-02-11T15:09:49;17.60;;;13.88;;
2544;SDS011;36212;48.838;9.142;2023-02-11T15:12:24;15.02;;;13.43;;
2544;SDS011;36212;48.838;9.142;2023-02-11T15:14:58;17.00;;;13.68;;
2544;SDS011;36212;48.838;9.142;2023-02-11T15:17:31;17.40;;;13.30;;
2544;SDS011;36212;48.838;9.142;2023-02-11T15:20:03;15.10;;;13.05;;
2544;SDS011;36212;48.838;9.142;2023-02-11T15:22:46;18.98;;;13.75;;
2544;SDS011;36212;48.838;9.142;2023-02-11T15:25:28;15.98;;;13.13;;
2544;SDS011;36212;48.838;9.142;2023-02-11T15:28:22;17.00;;;14.35;;
2544;SDS011;36212;48.838;9.142;2023-02-11T15:31:12;17.33;;;13.65;;
2544;SDS011;36212;48.838;9.142;2023-02-11T15:33:50;17.10;;;15.30;;
2544;SDS011;36212;48.838;9.142;2023-02-11T15:36:23;18.42;;;15.13;;
2544;SDS011;36212;48.838;9.142;2023-02-11T15:45:32;16.10;;;13.02;;
2544;SDS011;36212;48.838;9.142;2023-02-11T15:48:16;15.82;;;14.27;;
2544;SDS011;36212;48.838;9.142;2023-02-11T15:51:12;16.35;;;14.25;;
2544;SDS011;36212;48.838;9.142;2023-02-11T15:54:05;15.63;;;14.00;;
2544;SDS011;36212;48.838;9.142;2023-02-11T15:56:51;15.98;;;13.80;;
2544;SDS011;36212;48.838;9.142;2023-02-11T15:59:37;18.55;;;15.20;;
2544;SDS011;36212;48.838;9.142;2023-02-11T16:02:19;16.35;;;14.65;;
2544;SDS011;36212;48.838;9.142;2023-02-11T16:05:04;16.55;;;14.70;;
2544;SDS011;36212;48.838;9.142;2023-02-11T16:07:55;19.67;;;15.07;;
2544;SDS011;36212;48.838;9.142;2023-02-11T16:10:30;18.25;;;15.60;;
2544;SDS011;36212;48.838;9.142;2023-02-11T16:16:15;19.88;;;15.18;;
2544;SDS011;36212;48.838;9.142;2023-02-11T16:18:52;16.88;;;14.45;;
2544;SDS011;36212;48.838;9.142;2023-02-11T16:21:42;20.58;;;15.77;;
2544;SDS011;36212;48.838;9.142;2023-02-11T16:24:17;20.40;;;16.42;;
2544;SDS011;36212;48.838;9.142;2023-02-11T16:26:57;20.38;;;16.27;;
2544;SDS011;36212;48.838;9.142;2023-02-11T16:29:36;18.55;;;16.25;;
2544;SDS011;36212;48.838;9.142;2023-02-11T16:32:14;19.17;;;16.52;;
2544;SDS011;36212;48.838;9.142;2023-02-11T16:34:53;19.40;;;16.40;;
2544;SDS011;36212;48.838;9.142;2023-02-11T16:37:29;20.58;;;16.90;;
2544;SDS011;36212;48.838;9.142;2023-02-11T16:40:02;19.70;;;17.52;;
2544;SDS011;36212;48.838;9.142;2023-02-11T16:42:35;21.20;;;16.35;;
2544;SDS011;36212;48.838;9.142;2023-02-11T16:45:07;19.65;;;15.73;;
2544;SDS011;36212;48.838;9.142;2023-02-11T16:47:40;21.50;;;16.00;;
2544;SDS011;36212;48.838;9.142;2023-02-11T16:50:21;20.90;;;16.65;;
2544;SDS011;36212;48.838;9.142;2023-02-11T16:52:55;19.88;;;16.85;;
2544;SDS011;36212;48.838;9.142;2023-02-11T16:55:32;20.25;;;16.80;;
2544;SDS011;36212;48.838;9.142;2023-02-11T16:58:05;22.92;;;16.70;;
2544;SDS011;36212;48.838;9.142;2023-02-11T17:00:41;18.08;;;16.13;;
2544;SDS011;36212;48.838;9.142;2023-02-11T17:03:18;20.25;;;17.20;;
2544;SDS011;36212;48.838;9.142;2023-02-11T17:05:55;19.92;;;16.73;;
2544;SDS011;36212;48.838;9.142;2023-02-11T17:08:34;21.48;;;17.15;;
2544;SDS011;36212;48.838;9.142;2023-02-11T17:11:09;21.77;;;15.95;;
2544;SDS011;36212;48.838;9.142;2023-02-11T17:13:46;20.85;;;16.27;;
2544;SDS011;36212;48.838;9.142;2023-02-11T17:16:20;20.55;;;16.77;;
2544;SDS011;36212;48.838;9.142;2023-02-11T17:18:54;20.88;;;15.77;;
2544;SDS011;36212;48.838;9.142;2023-02-11T17:21:26;20.67;;;16.88;;
2544;SDS011;36212;48.838;9.142;2023-02-11T17:24:01;20.85;;;16.80;;
2544;SDS011;36212;48.838;9.142;2023-02-11T17:26:35;21.88;;;18.48;;
2544;SDS011;36212;48.838;9.142;2023-02-11T17:29:09;20.85;;;16.50;;
2544;SDS011;36212;48.838;9.142;2023-02-11T17:31:49;20.40;;;17.40;;
2544;SDS011;36212;48.838;9.142;2023-02-11T17:34:23;23.15;;;19.55;;
2544;SDS011;36212;48.838;9.142;2023-02-11T17:36:55;23.33;;;17.92;;
2544;SDS011;36212;48.838;9.142;2023-02-11T17:39:29;21.27;;;18.13;;
2544;SDS011;36212;48.838;9.142;2023-02-11T17:42:01;21.75;;;17.63;;
2544;SDS011;36212;48.838;9.142;2023-02-11T17:44:36;22.27;;;17.65;;
2544;SDS011;36212;48.838;9.142;2023-02-11T17:47:08;22.17;;;18.10;;
2544;SDS011;36212;48.838;9.142;2023-02-11T17:49:41;20.15;;;15.77;;
2544;SDS011;36212;48.838;9.142;2023-02-11T17:52:13;20.52;;;17.08;;
2544;SDS011;36212;48.838;9.142;2023-02-11T17:54:48;22.50;;;18.33;;
2544;SDS011;36212;48.838;9.142;2023-02-11T17:57:21;21.90;;;18.13;;
2544;SDS011;36212;48.838;9.142;2023-02-11T17:59:54;19.05;;;16.67;;
2544;SDS011;36212;48.838;9.142;2023-02-11T18:02:26;21.20;;;17.35;;
2544;SDS011;36212;48.838;9.142;2023-02-11T18:04:59;21.92;;;19.20;;
2544;SDS011;36212;48.838;9.142;2023-02-11T18:07:32;27.92;;;16.95;;
2544;SDS011;36212;48.838;9.142;2023-02-11T18:10:05;19.23;;;16.02;;
2544;SDS011;36212;48.838;9.142;2023-02-11T18:12:39;23.88;;;17.63;;
2544;SDS011;36212;48.838;9.142;2023-02-11T18:15:11;22.00;;;17.52;;
2544;SDS011;36212;48.838;9.142;2023-02-11T18:17:43;23.75;;;19.13;;
2544;SDS011;36212;48.838;9.142;2023-02-11T18:20:18;24.05;;;19.25;;
2544;SDS011;36212;48.838;9.142;2023-02-11T18:22:50;21.85;;;17.20;;
2544;SDS011;36212;48.838;9.142;2023-02-11T18:25:23;21.85;;;18.83;;
2544;SDS011;36212;48.838;9.142;2023-02-11T18:27:55;22.10;;;18.77;;
2544;SDS011;36212;48.838;9.142;2023-02-11T18:30:28;28.80;;;22.02;;
2544;SDS011;36212;48.838;9.142;2023-02-11T18:33:04;36.80;;;27.58;;
2544;SDS011;36212;48.838;9.142;2023-02-11T18:35:44;45.20;;;30.73;;
2544;SDS011;36212;48.838;9.142;2023-02-11T18:38:18;35.10;;;27.70;;
2544;SDS011;36212;48.838;9.142;2023-02-11T18:40:58;34.38;;;25.17;;
2544;SDS011;36212;48.838;9.142;2023-02-11T18:43:30;25.98;;;21.08;;
2544;SDS011;36212;48.838;9.142;2023-02-11T18:46:06;24.90;;;19.95;;